createdAt,value
2018-09-22T00:00:04.846Z,15.81
2018-09-22T00:01:10.372Z,15.72
2018-09-22T00:02:16.884Z,15.78
2018-09-22T00:03:21.429Z,15.76
2018-09-22T00:04:26.903Z,15.70
2018-09-22T00:05:32.415Z,15.84
2018-09-22T00:06:37.919Z,15.79
2018-09-22T00:07:43.457Z,15.81
2018-09-22T00:08:49.968Z,15.79
2018-09-22T00:09:54.479Z,15.76
2018-09-22T00:10:59.980Z,15.82
2018-09-22T00:12:05.503Z,15.76
2018-09-22T00:13:11.021Z,15.81
2018-09-22T00:14:16.531Z,15.76
2018-09-22T00:15:23.070Z,15.76
2018-09-22T00:16:27.551Z,15.75
2018-09-22T00:17:33.066Z,15.79
2018-09-22T00:18:38.574Z,15.66
2018-09-22T00:19:44.103Z,15.67
2018-09-22T00:20:49.600Z,15.66
2018-09-22T00:21:56.155Z,15.68
2018-09-22T00:23:00.638Z,15.66
2018-09-22T00:24:06.162Z,15.60
2018-09-22T00:25:11.658Z,15.56
2018-09-22T00:26:17.214Z,15.52
2018-09-22T00:27:22.689Z,15.56
2018-09-22T00:28:29.216Z,15.54
2018-09-22T00:29:33.703Z,15.43
2018-09-22T00:30:39.225Z,15.46
2018-09-22T00:31:44.742Z,15.45
2018-09-22T00:32:50.249Z,15.46
2018-09-22T00:33:55.760Z,15.38
2018-09-22T00:35:02.316Z,15.39
2018-09-22T00:36:06.793Z,15.35
2018-09-22T00:37:12.306Z,15.27
2018-09-22T00:38:17.824Z,15.33
2018-09-22T00:39:23.342Z,15.24
2018-09-22T00:40:28.839Z,15.27
2018-09-22T00:41:35.363Z,15.13
2018-09-22T00:42:39.866Z,15.03
2018-09-22T00:43:45.384Z,15.06
2018-09-22T00:44:50.897Z,15.08
2018-09-22T00:45:56.403Z,15.02
2018-09-22T00:47:01.920Z,14.91
2018-09-22T00:48:08.454Z,14.91
2018-09-22T00:49:12.939Z,14.86
2018-09-22T00:50:18.455Z,14.87
2018-09-22T00:51:23.980Z,14.84
2018-09-22T00:52:29.482Z,14.75
2018-09-22T00:53:35.010Z,14.75
2018-09-22T00:54:41.520Z,14.68
2018-09-22T00:55:46.025Z,14.67
2018-09-22T00:56:51.536Z,14.61
2018-09-22T00:57:57.046Z,14.60
2018-09-22T00:59:02.571Z,14.49
2018-09-22T01:00:08.072Z,14.53
2018-09-22T01:01:14.599Z,14.32
2018-09-22T01:02:19.102Z,14.35
2018-09-22T01:03:24.617Z,14.35
2018-09-22T01:04:30.120Z,14.28
2018-09-22T01:05:35.634Z,14.28
2018-09-22T01:06:41.151Z,14.35
2018-09-22T01:07:47.674Z,14.37
2018-09-22T01:08:52.177Z,14.35
2018-09-22T01:09:57.690Z,14.21
2018-09-22T01:11:03.205Z,14.20
2018-09-22T01:12:08.717Z,14.25
2018-09-22T01:13:14.220Z,14.20
2018-09-22T01:14:20.775Z,14.21
2018-09-22T01:15:25.272Z,14.24
2018-09-22T01:16:30.769Z,14.12
2018-09-22T01:17:36.286Z,14.12
2018-09-22T01:18:41.789Z,14.10
2018-09-22T01:19:47.301Z,14.16
2018-09-22T01:20:53.820Z,14.13
2018-09-22T01:21:58.324Z,13.99
2018-09-22T01:23:03.834Z,14.06
2018-09-22T01:24:09.353Z,14.12
2018-09-22T01:25:14.862Z,14.02
2018-09-22T01:26:20.380Z,14.14
2018-09-22T01:27:26.897Z,14.01
2018-09-22T01:28:31.401Z,14.12
2018-09-22T01:29:36.911Z,14.04
2018-09-22T01:30:42.425Z,14.02
2018-09-22T01:31:47.956Z,14.01
2018-09-22T01:32:53.447Z,14.01
2018-09-22T01:33:59.978Z,13.99
2018-09-22T01:35:04.478Z,13.99
2018-09-22T01:36:10.009Z,14.06
2018-09-22T01:37:15.496Z,14.06
2018-09-22T01:38:21.014Z,14.09
2018-09-22T01:39:26.532Z,14.06
2018-09-22T01:40:33.041Z,14.06
2018-09-22T01:41:37.552Z,14.09
2018-09-22T01:42:43.474Z,14.09
2018-09-22T01:43:48.575Z,14.09
2018-09-22T01:44:54.080Z,14.02
2018-09-22T01:45:59.594Z,13.98
2018-09-22T01:47:06.126Z,14.07
2018-09-22T01:48:10.620Z,14.10
2018-09-22T01:49:16.141Z,14.04
2018-09-22T01:50:21.661Z,14.10
2018-09-22T01:51:27.159Z,14.09
2018-09-22T01:52:32.700Z,14.12
2018-09-22T01:53:39.195Z,14.07
2018-09-22T01:54:43.696Z,14.09
2018-09-22T01:55:49.206Z,14.07
2018-09-22T01:56:54.739Z,14.01
2018-09-22T01:58:00.246Z,14.06
2018-09-22T01:59:05.756Z,14.04
2018-09-22T02:00:12.274Z,14.02
2018-09-22T02:01:16.780Z,13.96
2018-09-22T02:02:22.282Z,14.04
2018-09-22T02:03:27.793Z,13.99
2018-09-22T02:04:33.311Z,14.02
2018-09-22T02:05:38.818Z,13.98
2018-09-22T02:06:45.348Z,14.02
2018-09-22T02:07:49.847Z,13.99
2018-09-22T02:08:55.356Z,13.99
2018-09-22T02:10:00.876Z,14.06
2018-09-22T02:11:06.379Z,13.98
2018-09-22T02:12:11.902Z,14.04
2018-09-22T02:13:18.428Z,13.99
2018-09-22T02:14:22.917Z,14.01
2018-09-22T02:15:28.426Z,13.95
2018-09-22T02:16:33.955Z,14.02
2018-09-22T02:17:39.455Z,14.01
2018-09-22T02:18:44.974Z,14.04
2018-09-22T02:19:51.488Z,13.98
2018-09-22T02:20:55.987Z,13.98
2018-09-22T02:22:01.517Z,14.01
2018-09-22T02:23:07.021Z,13.99
2018-09-22T02:24:12.534Z,13.98
2018-09-22T02:25:18.039Z,13.99
2018-09-22T02:26:24.569Z,13.98
2018-09-22T02:27:29.068Z,13.94
2018-09-22T02:28:34.574Z,13.98
2018-09-22T02:29:40.096Z,13.94
2018-09-22T02:30:45.602Z,13.96
2018-09-22T02:31:51.119Z,13.98
2018-09-22T02:32:57.642Z,13.92
2018-09-22T02:34:02.137Z,13.91
2018-09-22T02:35:07.656Z,13.92
2018-09-22T02:36:13.193Z,13.92
2018-09-22T02:37:18.670Z,13.92
2018-09-22T02:38:24.195Z,13.91
2018-09-22T02:39:30.707Z,13.92
2018-09-22T02:40:35.217Z,13.91
2018-09-22T02:41:40.737Z,13.88
2018-09-22T02:42:46.236Z,13.88
2018-09-22T02:43:51.748Z,13.92
2018-09-22T02:44:57.259Z,13.94
2018-09-22T02:46:03.792Z,13.92
2018-09-22T02:47:08.283Z,13.89
2018-09-22T02:48:13.799Z,13.94
2018-09-22T02:49:19.311Z,13.96
2018-09-22T02:50:24.833Z,13.91
2018-09-22T02:51:30.343Z,13.94
2018-09-22T02:52:36.856Z,13.91
2018-09-22T02:53:41.359Z,13.96
2018-09-22T02:54:46.876Z,13.91
2018-09-22T02:55:52.382Z,13.92
2018-09-22T02:56:57.904Z,13.89
2018-09-22T02:58:03.409Z,13.84
2018-09-22T02:59:09.940Z,13.80
2018-09-22T03:00:14.433Z,13.81
2018-09-22T03:01:19.947Z,13.83
2018-09-22T03:02:25.454Z,13.83
2018-09-22T03:03:30.977Z,13.84
2018-09-22T03:04:36.488Z,13.79
2018-09-22T03:05:43.032Z,13.80
2018-09-22T03:06:47.552Z,13.81
2018-09-22T03:07:53.038Z,13.76
2018-09-22T03:08:58.537Z,13.81
2018-09-22T03:10:04.097Z,13.80
2018-09-22T03:11:09.564Z,13.79
2018-09-22T03:12:16.089Z,13.79
2018-09-22T03:13:20.583Z,13.79
2018-09-22T03:14:26.116Z,13.77
2018-09-22T03:15:31.709Z,13.79
2018-09-22T03:16:37.120Z,13.67
2018-09-22T03:17:42.634Z,13.73
2018-09-22T03:18:49.150Z,13.69
2018-09-22T03:19:53.661Z,13.71
2018-09-22T03:20:59.180Z,13.70
2018-09-22T03:22:04.677Z,13.67
2018-09-22T03:23:10.194Z,13.74
2018-09-22T03:24:15.703Z,13.63
2018-09-22T03:25:22.228Z,13.58
2018-09-22T03:26:26.733Z,13.65
2018-09-22T03:27:32.241Z,13.63
2018-09-22T03:28:37.760Z,13.62
2018-09-22T03:29:43.265Z,13.61
2018-09-22T03:30:48.779Z,13.59
2018-09-22T03:31:55.297Z,13.65
2018-09-22T03:32:59.801Z,13.58
2018-09-22T03:34:05.313Z,13.56
2018-09-22T03:35:10.820Z,13.51
2018-09-22T03:36:16.330Z,13.52
2018-09-22T03:37:21.851Z,13.54
2018-09-22T03:38:28.389Z,13.54
2018-09-22T03:39:32.876Z,13.58
2018-09-22T03:40:38.390Z,13.55
2018-09-22T03:41:43.899Z,13.51
2018-09-22T03:42:49.409Z,13.47
2018-09-22T03:43:54.929Z,13.51
2018-09-22T03:45:01.443Z,13.56
2018-09-22T03:46:05.952Z,13.44
2018-09-22T03:47:11.460Z,13.52
2018-09-22T03:48:16.980Z,13.46
2018-09-22T03:49:22.483Z,13.43
2018-09-22T03:50:27.996Z,13.51
2018-09-22T03:51:34.517Z,13.51
2018-09-22T03:52:39.027Z,13.46
2018-09-22T03:53:44.527Z,13.54
2018-09-22T03:54:50.037Z,13.49
2018-09-22T03:55:55.569Z,13.52
2018-09-22T03:57:01.065Z,13.44
2018-09-22T03:58:07.602Z,13.58
2018-09-22T03:59:12.088Z,13.54
2018-09-22T04:00:17.599Z,13.61
2018-09-22T04:01:23.127Z,13.61
2018-09-22T04:02:28.626Z,13.47
2018-09-22T04:03:34.144Z,13.52
2018-09-22T04:04:40.661Z,13.51
2018-09-22T04:05:45.157Z,13.54
2018-09-22T04:06:50.679Z,13.55
2018-09-22T04:07:56.195Z,13.49
2018-09-22T04:09:01.722Z,13.52
2018-09-22T04:10:07.218Z,13.61
2018-09-22T04:11:13.737Z,13.54
2018-09-22T04:12:18.249Z,13.56
2018-09-22T04:13:23.749Z,13.56
2018-09-22T04:14:29.273Z,13.59
2018-09-22T04:15:34.785Z,13.51
2018-09-22T04:16:40.289Z,13.55
2018-09-22T04:17:46.801Z,13.55
2018-09-22T04:18:51.309Z,13.59
2018-09-22T04:19:56.825Z,13.58
2018-09-22T04:21:02.334Z,13.58
2018-09-22T04:22:07.845Z,13.59
2018-09-22T04:23:13.351Z,13.61
2018-09-22T04:24:19.879Z,13.58
2018-09-22T04:25:24.379Z,13.67
2018-09-22T04:26:29.887Z,13.61
2018-09-22T04:27:35.405Z,13.55
2018-09-22T04:28:40.920Z,13.58
2018-09-22T04:29:46.438Z,13.63
2018-09-22T04:30:52.949Z,13.62
2018-09-22T04:31:57.457Z,13.67
2018-09-22T04:33:02.961Z,13.69
2018-09-22T04:34:08.476Z,13.59
2018-09-22T04:35:13.991Z,13.65
2018-09-22T04:36:19.515Z,13.69
2018-09-22T04:37:26.028Z,13.59
2018-09-22T04:38:30.527Z,13.56
2018-09-22T04:39:36.037Z,13.62
2018-09-22T04:40:41.559Z,13.63
2018-09-22T04:41:47.068Z,13.56
2018-09-22T04:42:52.574Z,13.61
2018-09-22T04:43:59.104Z,13.62
2018-09-22T04:45:03.597Z,13.62
2018-09-22T04:46:09.115Z,13.61
2018-09-22T04:47:14.623Z,13.55
2018-09-22T04:48:20.133Z,13.62
2018-09-22T04:49:25.653Z,13.61
2018-09-22T04:50:32.166Z,13.63
2018-09-22T04:51:36.672Z,13.67
2018-09-22T04:52:42.177Z,13.67
2018-09-22T04:53:47.689Z,13.67
2018-09-22T04:54:53.207Z,13.65
2018-09-22T04:55:58.716Z,13.62
2018-09-22T04:57:05.243Z,13.61
2018-09-22T04:58:09.739Z,13.62
2018-09-22T04:59:15.251Z,13.62
2018-09-22T05:00:20.771Z,13.65
2018-09-22T05:01:26.283Z,13.63
2018-09-22T05:02:31.793Z,13.69
2018-09-22T05:03:38.315Z,13.69
2018-09-22T05:04:42.826Z,13.61
2018-09-22T05:05:48.332Z,13.73
2018-09-22T05:06:53.833Z,13.74
2018-09-22T05:07:59.371Z,13.76
2018-09-22T05:09:04.866Z,13.74
2018-09-22T05:10:11.380Z,13.71
2018-09-22T05:11:15.892Z,13.77
2018-09-22T05:12:21.402Z,13.63
2018-09-22T05:13:26.915Z,13.70
2018-09-22T05:14:32.416Z,13.71
2018-09-22T05:15:37.948Z,13.69
2018-09-22T05:16:44.475Z,13.71
2018-09-22T05:17:48.961Z,13.74
2018-09-22T05:18:54.472Z,13.76
2018-09-22T05:19:59.992Z,13.71
2018-09-22T05:21:05.500Z,13.74
2018-09-22T05:22:11.014Z,13.71
2018-09-22T05:23:17.529Z,13.77
2018-09-22T05:24:22.040Z,13.71
2018-09-22T05:25:27.544Z,13.69
2018-09-22T05:26:33.066Z,13.81
2018-09-22T05:27:38.563Z,13.80
2018-09-22T05:28:44.080Z,13.77
2018-09-22T05:29:50.603Z,13.70
2018-09-22T05:30:55.106Z,13.67
2018-09-22T05:32:00.621Z,13.87
2018-09-22T05:33:06.137Z,13.81
2018-09-22T05:34:11.640Z,13.81
2018-09-22T05:35:17.167Z,13.80
2018-09-22T05:36:23.682Z,13.79
2018-09-22T05:37:28.252Z,13.83
2018-09-22T05:38:33.703Z,13.80
2018-09-22T05:39:39.207Z,13.77
2018-09-22T05:40:44.731Z,13.81
2018-09-22T05:41:50.287Z,13.76
2018-09-22T05:42:56.756Z,13.79
2018-09-22T05:44:01.259Z,13.80
2018-09-22T05:45:06.775Z,13.79
2018-09-22T05:46:12.300Z,13.89
2018-09-22T05:47:17.793Z,13.87
2018-09-22T05:48:23.298Z,13.91
2018-09-22T05:49:29.817Z,13.95
2018-09-22T05:50:34.327Z,13.96
2018-09-22T05:51:39.835Z,13.98
2018-09-22T05:52:45.347Z,14.01
2018-09-22T05:53:50.865Z,13.92
2018-09-22T05:54:56.376Z,13.96
2018-09-22T05:56:02.908Z,13.83
2018-09-22T05:57:07.402Z,13.99
2018-09-22T05:58:12.979Z,13.98
2018-09-22T05:59:18.427Z,13.88
2018-09-22T06:00:23.942Z,13.96
2018-09-22T06:01:29.461Z,13.96
2018-09-22T06:02:35.992Z,13.98
2018-09-22T06:03:40.530Z,14.06
2018-09-22T06:04:45.987Z,14.06
2018-09-22T06:05:51.505Z,14.01
2018-09-22T06:06:57.017Z,14.04
2018-09-22T06:08:02.521Z,14.01
2018-09-22T06:09:09.047Z,14.09
2018-09-22T06:10:13.547Z,14.10
2018-09-22T06:11:19.067Z,14.12
2018-09-22T06:12:24.575Z,14.02
2018-09-22T06:13:30.090Z,14.04
2018-09-22T06:14:35.594Z,14.09
2018-09-22T06:15:42.139Z,14.06
2018-09-22T06:16:46.620Z,14.12
2018-09-22T06:17:52.146Z,14.02
2018-09-22T06:18:57.647Z,14.10
2018-09-22T06:20:03.153Z,14.06
2018-09-22T06:21:08.680Z,13.99
2018-09-22T06:22:15.190Z,14.04
2018-09-22T06:23:19.701Z,14.13
2018-09-22T06:24:25.196Z,14.10
2018-09-22T06:25:30.729Z,14.14
2018-09-22T06:26:36.243Z,14.14
2018-09-22T06:27:41.738Z,14.21
2018-09-22T06:28:48.317Z,14.21
2018-09-22T06:29:52.788Z,14.12
2018-09-22T06:30:58.285Z,14.21
2018-09-22T06:32:03.801Z,14.21
2018-09-22T06:33:09.301Z,14.24
2018-09-22T06:34:14.811Z,14.21
2018-09-22T06:35:21.336Z,14.24
2018-09-22T06:36:25.851Z,14.19
2018-09-22T06:37:31.431Z,14.24
2018-09-22T06:38:36.868Z,14.21
2018-09-22T06:39:42.383Z,14.29
2018-09-22T06:40:47.895Z,14.34
2018-09-22T06:41:54.416Z,14.35
2018-09-22T06:42:58.918Z,14.35
2018-09-22T06:44:04.434Z,14.32
2018-09-22T06:45:09.941Z,14.29
2018-09-22T06:46:15.521Z,14.32
2018-09-22T06:47:20.967Z,14.34
2018-09-22T06:48:27.492Z,14.35
2018-09-22T06:49:32.000Z,14.37
2018-09-22T06:50:37.506Z,14.32
2018-09-22T06:51:43.551Z,14.34
2018-09-22T06:52:48.540Z,14.37
2018-09-22T06:53:54.059Z,14.44
2018-09-22T06:55:00.716Z,14.46
2018-09-22T06:56:05.073Z,14.46
2018-09-22T06:57:10.577Z,14.57
2018-09-22T06:58:16.094Z,14.44
2018-09-22T06:59:21.601Z,14.49
2018-09-22T07:00:27.113Z,14.56
2018-09-22T07:01:33.632Z,14.56
2018-09-22T07:02:38.134Z,14.64
2018-09-22T07:03:43.675Z,14.62
2018-09-22T07:04:49.170Z,14.71
2018-09-22T07:05:54.695Z,14.74
2018-09-22T07:07:00.206Z,14.75
2018-09-22T07:08:06.731Z,14.80
2018-09-22T07:09:11.238Z,14.75
2018-09-22T07:10:16.744Z,14.83
2018-09-22T07:11:22.254Z,14.83
2018-09-22T07:12:27.766Z,14.84
2018-09-22T07:13:33.274Z,14.87
2018-09-22T07:14:39.795Z,14.99
2018-09-22T07:15:44.290Z,14.94
2018-09-22T07:16:49.805Z,15.01
2018-09-22T07:17:55.336Z,14.94
2018-09-22T07:19:00.825Z,14.90
2018-09-22T07:20:06.336Z,15.02
2018-09-22T07:21:12.873Z,15.02
2018-09-22T07:22:17.367Z,15.05
2018-09-22T07:23:22.884Z,15.12
2018-09-22T07:24:28.386Z,15.15
2018-09-22T07:25:33.907Z,15.12
2018-09-22T07:26:39.432Z,15.28
2018-09-22T07:27:45.953Z,15.26
2018-09-22T07:28:50.442Z,15.21
2018-09-22T07:29:55.960Z,15.33
2018-09-22T07:31:01.533Z,15.31
2018-09-22T07:32:06.985Z,15.33
2018-09-22T07:33:12.507Z,15.31
2018-09-22T07:34:19.030Z,15.33
2018-09-22T07:35:23.523Z,15.46
2018-09-22T07:36:29.039Z,15.35
2018-09-22T07:37:34.560Z,15.42
2018-09-22T07:38:40.071Z,15.39
2018-09-22T07:39:45.567Z,15.48
2018-09-22T07:40:52.089Z,15.49
2018-09-22T07:41:56.596Z,15.56
2018-09-22T07:43:02.108Z,15.49
2018-09-22T07:44:07.624Z,15.54
2018-09-22T07:45:13.132Z,15.52
2018-09-22T07:46:18.651Z,15.59
2018-09-22T07:47:25.174Z,15.59
2018-09-22T07:48:29.670Z,15.70
2018-09-22T07:49:35.196Z,15.60
2018-09-22T07:50:40.700Z,15.72
2018-09-22T07:51:46.228Z,15.78
2018-09-22T07:52:51.728Z,15.67
2018-09-22T07:53:58.270Z,15.78
2018-09-22T07:55:02.769Z,15.75
2018-09-22T07:56:08.272Z,15.84
2018-09-22T07:57:13.811Z,15.81
2018-09-22T07:58:19.286Z,15.89
2018-09-22T07:59:24.837Z,15.85
2018-09-22T08:00:31.385Z,16.03
2018-09-22T08:01:35.845Z,15.99
2018-09-22T08:02:41.365Z,15.93
2018-09-22T08:03:46.858Z,16.03
2018-09-22T08:04:52.380Z,16.07
2018-09-22T08:05:57.907Z,16.11
2018-09-22T08:07:04.415Z,16.12
2018-09-22T08:08:08.939Z,16.11
2018-09-22T08:09:14.452Z,16.09
2018-09-22T08:10:19.937Z,16.14
2018-09-22T08:11:25.494Z,16.03
2018-09-22T08:12:30.981Z,16.11
2018-09-22T08:13:37.498Z,16.18
2018-09-22T08:14:41.994Z,16.04
2018-09-22T08:15:47.526Z,16.12
2018-09-22T08:16:53.039Z,16.25
2018-09-22T08:17:58.542Z,16.23
2018-09-22T08:19:04.057Z,16.22
2018-09-22T08:20:10.591Z,16.20
2018-09-22T08:21:15.085Z,16.16
2018-09-22T08:22:20.609Z,16.14
2018-09-22T08:23:26.112Z,16.23
2018-09-22T08:24:31.628Z,16.14
2018-09-22T08:25:37.124Z,16.16
2018-09-22T08:26:43.655Z,16.25
2018-09-22T08:27:48.159Z,16.27
2018-09-22T08:28:53.675Z,16.34
2018-09-22T08:29:59.185Z,16.26
2018-09-22T08:31:04.694Z,16.38
2018-09-22T08:32:10.224Z,16.45
2018-09-22T08:33:16.742Z,16.41
2018-09-22T08:34:21.252Z,16.41
2018-09-22T08:35:26.774Z,16.53
2018-09-22T08:36:32.437Z,16.58
2018-09-22T08:37:37.783Z,16.67
2018-09-22T08:38:43.304Z,16.63
2018-09-22T08:39:49.827Z,16.67
2018-09-22T08:40:54.316Z,16.74
2018-09-22T08:41:59.844Z,16.70
2018-09-22T08:43:05.347Z,16.70
2018-09-22T08:44:10.867Z,16.77
2018-09-22T08:45:16.376Z,16.81
2018-09-22T08:46:22.900Z,16.86
2018-09-22T08:47:27.407Z,16.93
2018-09-22T08:48:32.933Z,16.90
2018-09-22T08:49:38.537Z,16.93
2018-09-22T08:50:43.965Z,16.90
2018-09-22T08:51:49.467Z,16.95
2018-09-22T08:52:55.990Z,16.93
2018-09-22T08:54:00.491Z,16.95
2018-09-22T08:55:06.028Z,16.99
2018-09-22T08:56:11.508Z,17.06
2018-09-22T08:57:17.026Z,17.08
2018-09-22T08:58:22.552Z,17.15
2018-09-22T08:59:29.071Z,17.18
2018-09-22T09:00:33.640Z,17.15
2018-09-22T09:01:39.083Z,17.14
2018-09-22T09:02:44.592Z,17.18
2018-09-22T09:03:50.120Z,17.26
2018-09-22T09:04:55.704Z,17.26
2018-09-22T09:06:02.146Z,17.35
2018-09-22T09:07:06.657Z,17.38
2018-09-22T09:08:12.177Z,17.35
2018-09-22T09:09:17.688Z,17.35
2018-09-22T09:10:23.200Z,17.41
2018-09-22T09:11:28.745Z,17.41
2018-09-22T09:12:35.241Z,17.48
2018-09-22T09:13:39.761Z,17.47
2018-09-22T09:14:45.270Z,17.55
2018-09-22T09:15:50.767Z,17.51
2018-09-22T09:16:56.314Z,17.66
2018-09-22T09:18:01.810Z,17.59
2018-09-22T09:19:08.318Z,17.69
2018-09-22T09:20:12.814Z,17.64
2018-09-22T09:21:18.332Z,17.69
2018-09-22T09:22:23.839Z,17.70
2018-09-22T09:23:29.376Z,17.79
2018-09-22T09:24:34.884Z,17.84
2018-09-22T09:25:41.405Z,17.88
2018-09-22T09:26:45.906Z,17.79
2018-09-22T09:27:51.416Z,17.74
2018-09-22T09:28:56.937Z,17.85
2018-09-22T09:30:02.447Z,17.85
2018-09-22T09:31:07.959Z,17.85
2018-09-22T09:32:14.485Z,17.79
2018-09-22T09:33:19.005Z,17.85
2018-09-22T09:34:24.515Z,17.88
2018-09-22T09:35:30.026Z,17.87
2018-09-22T09:36:35.551Z,17.99
2018-09-22T09:37:41.076Z,17.92
2018-09-22T09:38:47.586Z,17.94
2018-09-22T09:39:52.080Z,17.99
2018-09-22T09:40:57.604Z,18.07
2018-09-22T09:42:03.111Z,18.13
2018-09-22T09:43:08.632Z,18.17
2018-09-22T09:44:14.147Z,18.22
2018-09-22T09:45:20.657Z,18.15
2018-09-22T09:46:25.160Z,18.21
2018-09-22T09:47:30.686Z,18.25
2018-09-22T09:48:36.207Z,18.31
2018-09-22T09:49:41.712Z,18.37
2018-09-22T09:50:47.216Z,18.42
2018-09-22T09:51:53.748Z,18.50
2018-09-22T09:52:58.250Z,18.57
2018-09-22T09:54:03.763Z,18.62
2018-09-22T09:55:09.285Z,18.55
2018-09-22T09:56:14.800Z,18.57
2018-09-22T09:57:20.304Z,18.59
2018-09-22T09:58:26.849Z,18.57
2018-09-22T09:59:31.339Z,18.54
2018-09-22T10:00:36.853Z,18.58
2018-09-22T10:01:42.368Z,18.68
2018-09-22T10:02:47.879Z,18.58
2018-09-22T10:03:53.395Z,18.68
2018-09-22T10:04:59.925Z,18.65
2018-09-22T10:06:04.420Z,18.64
2018-09-22T10:07:10.010Z,18.64
2018-09-22T10:08:15.459Z,18.68
2018-09-22T10:09:20.967Z,18.62
2018-09-22T10:10:26.496Z,18.70
2018-09-22T10:11:33.019Z,18.73
2018-09-22T10:12:37.521Z,18.70
2018-09-22T10:13:43.029Z,18.67
2018-09-22T10:14:48.549Z,18.80
2018-09-22T10:15:54.080Z,18.73
2018-09-22T10:16:59.591Z,18.76
2018-09-22T10:18:06.108Z,18.82
2018-09-22T10:19:10.622Z,18.82
2018-09-22T10:20:16.190Z,18.90
2018-09-22T10:21:21.634Z,18.95
2018-09-22T10:22:27.146Z,18.94
2018-09-22T10:23:32.667Z,19.02
2018-09-22T10:24:39.198Z,19.06
2018-09-22T10:25:43.710Z,19.05
2018-09-22T10:26:49.214Z,19.02
2018-09-22T10:27:54.758Z,19.05
2018-09-22T10:29:00.249Z,19.10
2018-09-22T10:30:05.746Z,19.13
2018-09-22T10:31:12.286Z,19.23
2018-09-22T10:32:16.790Z,19.24
2018-09-22T10:33:22.309Z,19.39
2018-09-22T10:34:27.812Z,19.42
2018-09-22T10:35:33.342Z,19.50
2018-09-22T10:36:38.843Z,19.65
2018-09-22T10:37:45.376Z,19.72
2018-09-22T10:38:49.876Z,19.76
2018-09-22T10:39:55.389Z,19.79
2018-09-22T10:41:00.906Z,19.86
2018-09-22T10:42:06.427Z,19.84
2018-09-22T10:43:11.953Z,19.97
2018-09-22T10:44:18.471Z,19.87
2018-09-22T10:45:22.970Z,19.70
2018-09-22T10:46:28.480Z,19.76
2018-09-22T10:47:34.009Z,19.80
2018-09-22T10:48:39.507Z,19.95
2018-09-22T10:49:45.027Z,19.97
2018-09-22T10:50:51.582Z,19.98
2018-09-22T10:51:56.063Z,20.05
2018-09-22T10:53:01.645Z,20.05
2018-09-22T10:54:07.091Z,20.16
2018-09-22T10:55:12.615Z,20.16
2018-09-22T10:56:18.116Z,20.21
2018-09-22T10:57:24.661Z,20.28
2018-09-22T10:58:29.167Z,20.23
2018-09-22T10:59:34.677Z,20.21
2018-09-22T11:00:40.185Z,20.21
2018-09-22T11:01:45.699Z,20.33
2018-09-22T11:02:51.216Z,20.43
2018-09-22T11:03:57.741Z,20.53
2018-09-22T11:05:02.252Z,20.59
2018-09-22T11:06:07.779Z,20.53
2018-09-22T11:07:13.294Z,20.65
2018-09-22T11:08:18.799Z,20.76
2018-09-22T11:10:35.906Z,20.80
2018-09-22T11:11:41.411Z,20.91
2018-09-22T11:13:39.826Z,20.90
2018-09-22T11:14:45.324Z,20.79
2018-09-22T11:16:43.745Z,20.81
2018-09-22T11:17:49.247Z,20.79
2018-09-22T11:19:47.663Z,20.83
2018-09-22T11:20:53.165Z,20.77
2018-09-22T11:22:51.587Z,20.77
2018-09-22T11:23:57.085Z,20.81
2018-09-22T11:25:55.498Z,20.81
2018-09-22T11:27:01.095Z,20.79
2018-09-22T11:28:59.411Z,20.79
2018-09-22T11:30:04.924Z,20.89
2018-09-22T11:32:03.347Z,20.77
2018-09-22T11:33:08.842Z,20.81
2018-09-22T11:35:07.281Z,20.74
2018-09-22T11:36:12.775Z,20.81
2018-09-22T11:38:11.250Z,20.71
2018-09-22T11:39:16.686Z,20.79
2018-09-22T11:41:15.115Z,20.79
2018-09-22T11:42:20.609Z,20.72
2018-09-22T11:44:19.048Z,20.61
2018-09-22T11:45:24.531Z,20.66
2018-09-22T11:47:22.943Z,20.72
2018-09-22T11:48:28.457Z,20.66
2018-09-22T11:50:26.877Z,20.53
2018-09-22T11:51:32.371Z,20.51
2018-09-22T11:53:30.794Z,20.42
2018-09-22T11:54:36.310Z,20.34
2018-09-22T11:56:34.802Z,20.25
2018-09-22T11:57:40.233Z,20.25
2018-09-22T11:59:38.657Z,20.13
2018-09-22T12:00:44.162Z,20.12
2018-09-22T12:02:42.577Z,20.05
2018-09-22T12:03:48.078Z,20.15
2018-09-22T12:05:46.539Z,20.10
2018-09-22T12:06:51.999Z,20.09
2018-09-22T12:08:50.433Z,20.05
2018-09-22T12:09:55.929Z,20.02
2018-09-22T12:11:54.352Z,20.02
2018-09-22T12:12:59.851Z,19.94
2018-09-22T12:14:58.284Z,19.95
2018-09-22T12:16:03.784Z,19.93
2018-09-22T12:18:02.214Z,19.80
2018-09-22T12:19:07.712Z,19.84
2018-09-22T12:21:06.133Z,19.76
2018-09-22T12:22:11.633Z,19.79
2018-09-22T12:24:10.035Z,19.79
2018-09-22T12:25:15.547Z,19.79
2018-09-22T12:27:13.966Z,19.76
2018-09-22T12:28:19.464Z,19.88
2018-09-22T12:30:17.891Z,19.94
2018-09-22T12:31:23.379Z,19.97
2018-09-22T12:33:21.795Z,20.00
2018-09-22T12:34:27.298Z,19.97
2018-09-22T12:36:25.718Z,20.03
2018-09-22T12:37:31.212Z,19.94
2018-09-22T12:39:29.634Z,19.94
2018-09-22T12:40:35.145Z,19.97
2018-09-22T12:42:33.577Z,19.94
2018-09-22T12:43:39.076Z,19.94
2018-09-22T12:45:37.485Z,19.94
2018-09-22T12:46:42.997Z,19.95
2018-09-22T12:48:41.426Z,20.00
2018-09-22T12:49:46.909Z,19.95
2018-09-22T12:51:45.348Z,20.03
2018-09-22T12:52:50.829Z,19.98
2018-09-22T12:54:49.250Z,20.06
2018-09-22T12:55:54.765Z,19.94
2018-09-22T12:57:53.216Z,19.97
2018-09-22T12:58:58.708Z,19.94
2018-09-22T13:00:57.217Z,19.98
2018-09-22T13:02:02.734Z,20.02
2018-09-22T13:04:01.238Z,19.95
2018-09-22T13:05:06.734Z,20.02
2018-09-22T13:07:05.266Z,19.94
2018-09-22T13:08:10.751Z,19.95
2018-09-22T13:10:09.255Z,19.87
2018-09-22T13:11:14.766Z,19.88
2018-09-22T13:13:13.278Z,19.88
2018-09-22T13:14:18.784Z,19.91
2018-09-22T13:16:17.294Z,19.90
2018-09-22T13:17:22.793Z,19.84
2018-09-22T13:19:21.298Z,19.90
2018-09-22T13:20:26.808Z,19.78
2018-09-22T13:22:25.328Z,19.78
2018-09-22T13:23:30.820Z,19.68
2018-09-22T13:25:29.326Z,19.69
2018-09-22T13:26:34.837Z,19.65
2018-09-22T13:28:33.350Z,19.65
2018-09-22T13:29:38.847Z,19.66
2018-09-22T13:31:37.355Z,19.80
2018-09-22T13:32:42.873Z,19.83
2018-09-22T13:34:41.382Z,19.88
2018-09-22T13:35:46.879Z,19.80
2018-09-22T13:37:45.406Z,19.84
2018-09-22T13:38:50.892Z,19.78
2018-09-22T13:40:49.413Z,19.70
2018-09-22T13:41:54.908Z,19.68
2018-09-22T13:43:53.432Z,19.70
2018-09-22T13:44:58.927Z,19.66
2018-09-22T13:46:57.344Z,19.68
2018-09-22T13:48:02.848Z,19.70
2018-09-22T13:50:01.285Z,19.68
2018-09-22T13:51:06.778Z,19.69
2018-09-22T13:53:05.200Z,19.58
2018-09-22T13:54:10.716Z,19.48
2018-09-22T13:56:09.160Z,19.51
2018-09-22T13:57:14.636Z,19.50
2018-09-22T13:59:13.047Z,19.39
2018-09-22T14:00:18.544Z,19.42
2018-09-22T14:02:16.951Z,19.25
2018-09-22T14:03:22.468Z,19.23
2018-09-22T14:04:27.980Z,19.17
2018-09-22T14:05:33.495Z,19.14
2018-09-22T14:06:39.007Z,19.10
2018-09-22T14:07:44.519Z,19.02
2018-09-22T14:08:50.033Z,18.91
2018-09-22T14:09:55.600Z,18.98
2018-09-22T14:11:01.064Z,18.90
2018-09-22T14:12:06.575Z,18.95
2018-09-22T14:13:12.093Z,18.83
2018-09-22T14:14:17.619Z,18.79
2018-09-22T14:15:23.121Z,18.77
2018-09-22T14:16:28.636Z,18.76
2018-09-22T14:17:34.158Z,18.68
2018-09-22T14:18:39.712Z,18.62
2018-09-22T14:19:45.176Z,18.72
2018-09-22T14:20:50.711Z,18.64
2018-09-22T14:21:56.205Z,18.65
2018-09-22T14:23:01.724Z,18.72
2018-09-22T14:24:07.238Z,18.74
2018-09-22T14:25:12.746Z,18.61
2018-09-22T14:26:18.267Z,18.57
2018-09-22T14:27:23.783Z,18.54
2018-09-22T14:28:29.297Z,18.57
2018-09-22T14:29:34.841Z,18.65
2018-09-22T14:30:40.342Z,18.55
2018-09-22T14:31:45.841Z,18.54
2018-09-22T14:32:51.360Z,18.57
2018-09-22T14:33:56.868Z,18.57
2018-09-22T14:35:02.381Z,18.54
2018-09-22T14:36:07.892Z,18.49
2018-09-22T14:37:13.406Z,18.55
2018-09-22T14:38:18.934Z,18.54
2018-09-22T14:39:24.442Z,18.55
2018-09-22T14:40:30.004Z,18.58
2018-09-22T14:41:35.474Z,18.54
2018-09-22T14:42:40.996Z,18.44
2018-09-22T14:43:46.499Z,18.42
2018-09-22T14:44:52.016Z,18.29
2018-09-22T14:45:57.531Z,18.31
2018-09-22T14:47:03.047Z,18.17
2018-09-22T14:48:08.563Z,18.19
2018-09-22T14:49:14.073Z,18.00
2018-09-22T14:50:19.590Z,17.99
2018-09-22T14:51:25.119Z,17.92
2018-09-22T14:52:30.621Z,17.94
2018-09-22T14:53:36.133Z,17.85